Colora, Maryland
Current Conditions -  °F | °C
As of 4:15 AM on Wednesday 22 Oct 2014 (Local Time) from KMQS Reporting Station
Broken Clouds Broken Clouds  
Wind Chill: 52°   Ceiling: 800
Heat Index: 52°   Visibility: 9mi
Dew Point: 50°   Wind: 9mph
Humidity: 94%   Direction: 10°N
Pressure: 29.86"   Gusts: NA
Location:  39.67°N, 76.1°W
Report Text: KMQS 220815Z AUTO 01008KT 9SM BKN008 11/10 A2986 RMK AO2
Loading
Personal Weather Stations






























Interactive Weather Map
Tropical Storm Tracking
New forecast layout! Learn more

10-Day Weather Forecast

Advertisements
Track Severe Weather on mobile